Terminal Aerodrome Forecast
Issued by NWS

Home | Current Version | Previous Version | Text Only | Print | Product List | Glossary On
Versions: 1 2 3 4 5 6 7 8 9 10 11 12 13 14 15
547
FTUS41 KLWX 111120
TAFMTN
TAF
KMTN 111120Z 1112/1212 26015G25KT P6SM SCT150
     FM120400 29009KT P6SM FEW250=

USA.gov is the U.S. government's official web portal to all federal, state and local government web resources and services.